createdAt,value
2019-05-23T00:01:22.365Z,77.10
2019-05-23T00:04:12.058Z,75.70
2019-05-23T00:06:45.543Z,75.20
2019-05-23T00:09:17.060Z,76.00
2019-05-23T00:11:50.391Z,75.80
2019-05-23T00:14:34.430Z,75.20
2019-05-23T00:17:07.743Z,75.00
2019-05-23T00:19:40.030Z,75.30
2019-05-23T00:22:13.177Z,74.20
2019-05-23T00:24:44.690Z,74.50
2019-05-23T00:27:18.050Z,73.00
2019-05-23T00:29:50.483Z,72.80
2019-05-23T00:32:35.690Z,72.10
2019-05-23T00:35:12.879Z,71.90
2019-05-23T00:37:44.585Z,71.50
2019-05-23T00:40:17.334Z,71.40
2019-05-23T00:42:49.290Z,70.60
2019-05-23T00:45:23.252Z,70.60
2019-05-23T00:47:55.202Z,70.20
2019-05-23T00:50:27.590Z,69.70
2019-05-23T00:52:59.729Z,69.40
2019-05-23T00:55:31.715Z,69.40
2019-05-23T00:58:04.681Z,68.70
2019-05-23T01:00:36.079Z,68.90
2019-05-23T01:03:08.276Z,68.90
2019-05-23T01:05:39.781Z,69.00
2019-05-23T01:08:14.565Z,66.50
2019-05-23T01:10:46.772Z,67.30
2019-05-23T01:13:18.057Z,67.90
2019-05-23T01:15:50.580Z,68.20
2019-05-23T01:18:22.261Z,65.60
2019-05-23T01:21:01.176Z,64.80
2019-05-23T01:23:34.006Z,65.80
2019-05-23T01:26:06.259Z,65.90
2019-05-23T01:28:38.706Z,66.10
2019-05-23T01:31:14.436Z,66.00
2019-05-23T01:33:47.001Z,65.90
2019-05-23T01:36:19.297Z,65.60
2019-05-23T01:38:50.867Z,65.40
2019-05-23T01:41:23.983Z,65.20
2019-05-23T01:43:56.104Z,64.90
2019-05-23T01:46:28.597Z,64.70
2019-05-23T01:49:00.599Z,64.60
2019-05-23T01:51:32.435Z,64.10
2019-05-23T01:54:04.914Z,63.90
2019-05-23T01:56:37.188Z,63.60
2019-05-23T01:59:09.830Z,63.40
2019-05-23T02:01:42.221Z,63.30
2019-05-23T02:04:13.639Z,62.70
2019-05-23T02:06:45.364Z,61.20
2019-05-23T02:09:17.808Z,62.80
2019-05-23T02:11:50.503Z,61.60
2019-05-23T02:14:22.866Z,62.10
2019-05-23T02:16:55.055Z,62.70
2019-05-23T02:19:26.683Z,62.60
2019-05-23T02:21:58.490Z,62.20
2019-05-23T02:24:31.227Z,62.10
2019-05-23T02:27:03.563Z,61.50
2019-05-23T02:29:34.919Z,62.20
2019-05-23T02:32:07.364Z,61.70
2019-05-23T02:34:39.110Z,61.40
2019-05-23T02:37:28.115Z,61.60
2019-05-23T02:40:01.005Z,62.40
2019-05-23T02:42:36.641Z,61.70
2019-05-23T02:45:10.313Z,61.10
2019-05-23T02:47:43.499Z,61.50
2019-05-23T02:50:33.468Z,60.10
2019-05-23T02:53:06.466Z,61.00
2019-05-23T02:55:39.778Z,61.10
2019-05-23T02:58:17.077Z,61.10
2019-05-23T03:00:56.987Z,57.80
2019-05-23T03:03:29.969Z,59.70
2019-05-23T03:06:05.706Z,59.80
2019-05-23T03:08:38.711Z,61.10
2019-05-23T03:11:28.178Z,61.30
2019-05-23T03:14:01.329Z,60.20
2019-05-23T03:16:33.062Z,59.90
2019-05-23T03:19:20.196Z,60.70
2019-05-23T03:21:52.616Z,60.70
2019-05-23T03:24:25.563Z,60.50
2019-05-23T03:27:04.962Z,59.30
2019-05-23T03:29:37.311Z,58.80
2019-05-23T03:32:12.997Z,59.80
2019-05-23T03:34:46.335Z,59.30
2019-05-23T03:37:18.161Z,59.90
2019-05-23T03:39:50.743Z,59.50
2019-05-23T03:42:23.714Z,59.20
2019-05-23T03:44:56.104Z,58.90
2019-05-23T03:47:28.889Z,58.70
2019-05-23T03:50:01.683Z,59.10
2019-05-23T03:52:33.250Z,57.90
2019-05-23T03:55:05.211Z,59.10
2019-05-23T03:57:38.317Z,59.30
2019-05-23T04:00:15.344Z,59.10
2019-05-23T04:02:47.753Z,58.50
2019-05-23T04:05:20.278Z,59.10
2019-05-23T04:07:51.531Z,59.10
2019-05-23T04:10:23.126Z,59.10
2019-05-23T04:12:57.376Z,58.70
2019-05-23T04:15:30.239Z,58.60
2019-05-23T04:18:01.869Z,58.40
2019-05-23T04:20:34.253Z,53.80
2019-05-23T04:23:07.478Z,56.70
2019-05-23T04:25:39.341Z,55.40
2019-05-23T04:28:11.091Z,56.30
2019-05-23T04:30:42.943Z,55.10
2019-05-23T04:33:15.025Z,55.90
2019-05-23T04:35:46.858Z,55.60
2019-05-23T04:38:18.664Z,57.70
2019-05-23T04:40:50.376Z,55.40
2019-05-23T04:43:22.383Z,56.40
2019-05-23T04:45:54.272Z,56.80
2019-05-23T04:48:26.392Z,57.90
2019-05-23T04:51:00.078Z,58.20
2019-05-23T04:53:31.186Z,57.00
2019-05-23T04:56:02.629Z,57.00
2019-05-23T04:58:34.703Z,56.80
2019-05-23T05:01:06.511Z,56.00
2019-05-23T05:03:38.324Z,55.40
2019-05-23T05:06:10.174Z,57.00
2019-05-23T05:08:42.015Z,57.50
2019-05-23T05:11:13.835Z,57.70
2019-05-23T05:13:45.789Z,57.80
2019-05-23T05:16:17.797Z,57.60
2019-05-23T05:18:49.686Z,57.10
2019-05-23T05:21:21.238Z,57.50
2019-05-23T05:23:53.259Z,57.50
2019-05-23T05:26:25.632Z,56.30
2019-05-23T05:28:57.400Z,55.10
2019-05-23T05:31:29.235Z,56.20
2019-05-23T05:34:01.073Z,55.70
2019-05-23T05:36:32.546Z,56.90
2019-05-23T05:39:04.817Z,56.20
2019-05-23T05:41:36.927Z,55.40
2019-05-23T05:44:11.459Z,54.60
2019-05-23T05:46:41.402Z,56.70
2019-05-23T05:49:13.967Z,56.60
2019-05-23T05:51:45.950Z,56.90
2019-05-23T05:54:17.875Z,57.00
2019-05-23T05:56:49.502Z,57.10
2019-05-23T05:59:21.163Z,57.00
2019-05-23T06:01:53.702Z,57.00
2019-05-23T06:04:25.741Z,56.90
2019-05-23T06:06:58.437Z,56.70
2019-05-23T06:09:31.548Z,56.50
2019-05-23T06:12:03.470Z,56.40
2019-05-23T06:14:35.549Z,56.20
2019-05-23T06:17:08.447Z,56.30
2019-05-23T06:19:40.589Z,56.20
2019-05-23T06:22:13.272Z,56.20
2019-05-23T06:24:50.387Z,56.20
2019-05-23T06:27:19.024Z,54.90
2019-05-23T06:29:51.004Z,54.60
2019-05-23T06:32:23.769Z,55.40
2019-05-23T06:34:56.947Z,55.60
2019-05-23T06:37:33.858Z,55.70
2019-05-23T06:40:03.063Z,55.70
2019-05-23T06:42:34.927Z,55.00
2019-05-23T06:45:07.869Z,54.50
2019-05-23T06:47:40.804Z,52.10
2019-05-23T06:50:15.151Z,54.20
2019-05-23T06:52:46.642Z,54.10
2019-05-23T06:55:18.223Z,54.90
2019-05-23T06:57:49.996Z,55.00
2019-05-23T07:00:25.168Z,54.30
2019-05-23T07:02:57.006Z,53.20
2019-05-23T07:05:31.701Z,52.90
2019-05-23T07:08:03.655Z,53.90
2019-05-23T07:10:34.946Z,54.20
2019-05-23T07:13:06.622Z,54.70
2019-05-23T07:15:40.379Z,54.60
2019-05-23T07:18:11.916Z,55.00
2019-05-23T07:20:43.825Z,55.30
2019-05-23T07:23:15.195Z,55.40
2019-05-23T07:25:48.481Z,55.50
2019-05-23T07:28:19.608Z,55.40
2019-05-23T07:30:51.798Z,55.50
2019-05-23T07:33:23.509Z,55.40
2019-05-23T07:35:55.009Z,55.60
2019-05-23T07:38:27.229Z,55.50
2019-05-23T07:40:59.857Z,55.60
2019-05-23T07:43:31.281Z,55.60
2019-05-23T07:46:03.553Z,55.70
2019-05-23T07:48:35.551Z,55.80
2019-05-23T07:51:07.258Z,55.30
2019-05-23T07:53:46.096Z,55.50
2019-05-23T07:56:21.144Z,55.30
2019-05-23T07:58:52.312Z,55.70
2019-05-23T08:01:27.929Z,55.50
2019-05-23T08:03:59.352Z,55.30
2019-05-23T08:06:31.325Z,55.10
2019-05-23T08:09:02.963Z,54.60
2019-05-23T08:11:34.816Z,54.30
2019-05-23T08:14:10.206Z,51.40
2019-05-23T08:16:56.615Z,53.80
2019-05-23T08:19:28.637Z,50.20
2019-05-23T08:22:00.379Z,52.30
2019-05-23T08:24:35.234Z,54.10
2019-05-23T08:27:07.663Z,53.60
2019-05-23T08:29:39.440Z,53.50
2019-05-23T08:32:18.062Z,53.50
2019-05-23T08:34:51.433Z,53.50
2019-05-23T08:37:22.150Z,53.50
2019-05-23T08:39:53.594Z,54.00
2019-05-23T08:42:28.798Z,50.60
2019-05-23T08:45:00.244Z,51.30
2019-05-23T08:47:32.023Z,50.80
2019-05-23T08:50:03.810Z,51.90
2019-05-23T08:52:35.546Z,51.80
2019-05-23T08:55:09.683Z,52.80
2019-05-23T08:57:41.430Z,54.10
2019-05-23T09:00:13.830Z,54.20
2019-05-23T09:02:45.518Z,54.10
2019-05-23T09:05:18.434Z,53.90
2019-05-23T09:07:50.391Z,53.70
2019-05-23T09:10:22.564Z,53.60
2019-05-23T09:12:54.351Z,53.20
2019-05-23T09:15:31.535Z,52.90
2019-05-23T09:18:04.151Z,52.40
2019-05-23T09:20:35.879Z,51.80
2019-05-23T09:23:07.519Z,51.50
2019-05-23T09:25:39.112Z,51.60
2019-05-23T09:28:11.379Z,52.10
2019-05-23T09:30:43.104Z,51.90
2019-05-23T09:33:15.402Z,48.30
2019-05-23T09:35:48.047Z,50.70
2019-05-23T09:38:19.679Z,51.20
2019-05-23T09:40:51.575Z,51.60
2019-05-23T09:43:23.576Z,51.80
2019-05-23T09:45:55.171Z,51.80
2019-05-23T09:48:26.928Z,51.70
2019-05-23T09:50:58.819Z,51.60
2019-05-23T09:53:30.718Z,51.90
2019-05-23T09:56:02.612Z,52.30
2019-05-23T09:58:34.316Z,52.60
2019-05-23T10:01:06.311Z,53.00
2019-05-23T10:03:37.928Z,53.50
2019-05-23T10:06:09.915Z,53.40
2019-05-23T10:08:41.501Z,53.30
2019-05-23T10:11:13.574Z,52.00
2019-05-23T10:13:44.842Z,52.00
2019-05-23T10:16:16.967Z,53.50
2019-05-23T10:18:48.949Z,55.10
2019-05-23T10:21:21.080Z,54.60
2019-05-23T10:23:52.673Z,55.20
2019-05-23T10:26:25.014Z,55.80
2019-05-23T10:28:56.886Z,56.50
2019-05-23T10:31:28.866Z,57.50
2019-05-23T10:34:00.446Z,58.00
2019-05-23T10:36:32.192Z,58.80
2019-05-23T10:39:03.931Z,59.90
2019-05-23T10:41:35.423Z,60.40
2019-05-23T10:44:08.117Z,59.70
2019-05-23T10:46:40.170Z,60.70
2019-05-23T10:49:12.059Z,60.50
2019-05-23T10:51:43.585Z,64.80
2019-05-23T10:54:15.521Z,66.10
2019-05-23T10:56:47.278Z,64.50
2019-05-23T10:59:18.743Z,65.70
2019-05-23T11:01:50.721Z,65.00
2019-05-23T11:04:22.362Z,68.30
2019-05-23T11:06:54.135Z,69.80
2019-05-23T11:09:37.502Z,75.20
2019-05-23T11:11:59.109Z,72.80
2019-05-23T11:14:31.150Z,72.50
2019-05-23T11:17:03.243Z,79.10
2019-05-23T11:19:35.749Z,76.80
2019-05-23T11:22:08.997Z,76.10
2019-05-23T11:24:40.944Z,72.30
2019-05-23T11:27:12.708Z,74.70
2019-05-23T11:29:44.274Z,74.00
2019-05-23T11:32:20.001Z,74.70
2019-05-23T11:34:50.018Z,80.10
2019-05-23T11:37:22.314Z,78.50
2019-05-23T11:39:53.825Z,77.40
2019-05-23T11:42:25.955Z,80.40
2019-05-23T11:44:57.486Z,81.30
2019-05-23T11:47:31.946Z,79.50
2019-05-23T11:50:02.373Z,79.00
2019-05-23T11:52:34.342Z,79.40
2019-05-23T11:55:07.330Z,77.80
2019-05-23T11:57:39.464Z,76.80
2019-05-23T12:00:12.240Z,76.60
2019-05-23T12:02:45.454Z,75.90
2019-05-23T12:05:18.796Z,75.80
2019-05-23T12:07:50.857Z,75.40
2019-05-23T12:10:22.851Z,75.10
2019-05-23T12:12:54.924Z,73.90
2019-05-23T12:15:31.022Z,73.40
2019-05-23T12:18:03.149Z,73.20
2019-05-23T12:20:35.042Z,73.50
2019-05-23T12:23:10.776Z,73.60
2019-05-23T12:25:39.693Z,71.40
2019-05-23T12:28:12.393Z,73.30
2019-05-23T12:30:44.034Z,75.00
2019-05-23T12:33:15.637Z,75.70
2019-05-23T12:35:48.688Z,74.60
2019-05-23T12:38:20.281Z,78.00
2019-05-23T12:40:52.136Z,76.00
2019-05-23T12:43:23.705Z,75.70
2019-05-23T12:45:55.796Z,75.50
2019-05-23T12:48:34.914Z,76.40
2019-05-23T12:51:08.370Z,77.00
2019-05-23T12:53:39.952Z,79.10
2019-05-23T12:56:11.988Z,78.40
2019-05-23T12:58:44.313Z,78.50
2019-05-23T13:01:17.470Z,78.80
2019-05-23T13:03:49.163Z,77.70
2019-05-23T13:06:21.089Z,78.70
2019-05-23T13:08:53.271Z,77.70
2019-05-23T13:11:25.343Z,77.20
2019-05-23T13:13:56.798Z,76.60
2019-05-23T13:16:28.668Z,75.50
2019-05-23T13:19:00.420Z,76.60
2019-05-23T13:21:34.563Z,77.00
2019-05-23T13:24:06.107Z,76.20
2019-05-23T13:26:37.548Z,76.20
2019-05-23T13:29:09.311Z,76.50
2019-05-23T13:31:41.377Z,76.00
2019-05-23T13:34:13.245Z,75.60
2019-05-23T13:36:44.962Z,75.60
2019-05-23T13:39:16.706Z,75.20
2019-05-23T13:41:48.324Z,74.80
2019-05-23T13:44:33.031Z,75.00
2019-05-23T13:46:53.078Z,75.00
2019-05-23T13:49:25.134Z,74.50
2019-05-23T13:51:57.289Z,74.80
2019-05-23T13:54:29.362Z,75.20
2019-05-23T13:57:01.698Z,75.10
2019-05-23T13:59:33.606Z,74.80
2019-05-23T14:02:06.679Z,74.80
2019-05-23T14:04:38.557Z,75.30
2019-05-23T14:07:11.962Z,74.90
2019-05-23T14:09:43.677Z,75.00
2019-05-23T14:12:22.915Z,75.30
2019-05-23T14:14:48.830Z,75.30
2019-05-23T14:17:38.871Z,74.90
2019-05-23T14:20:10.959Z,75.20
2019-05-23T14:22:44.426Z,75.30
2019-05-23T14:25:16.229Z,75.10
2019-05-23T14:27:55.230Z,75.00
2019-05-23T14:30:37.511Z,75.50
2019-05-23T14:33:11.023Z,75.20
2019-05-23T14:35:47.059Z,75.60
2019-05-23T14:38:30.374Z,75.70
2019-05-23T14:40:52.743Z,75.70
2019-05-23T14:43:31.722Z,75.80
2019-05-23T14:46:11.406Z,76.10
2019-05-23T14:49:00.268Z,76.60
2019-05-23T14:51:33.214Z,77.10
2019-05-23T14:54:23.142Z,76.40
2019-05-23T14:56:54.796Z,76.40
2019-05-23T14:59:26.819Z,76.30
2019-05-23T15:01:59.423Z,76.30
2019-05-23T15:04:31.500Z,76.60
2019-05-23T15:07:03.199Z,76.00
2019-05-23T15:09:35.190Z,76.30
2019-05-23T15:12:07.501Z,76.50
2019-05-23T15:14:39.503Z,76.50
2019-05-23T15:17:11.261Z,76.40
2019-05-23T15:19:45.293Z,76.30
2019-05-23T15:22:16.307Z,76.10
2019-05-23T15:24:48.538Z,76.10
2019-05-23T15:27:20.239Z,76.30
2019-05-23T15:29:52.235Z,76.30
2019-05-23T15:32:24.047Z,75.80
2019-05-23T15:34:56.071Z,75.80
2019-05-23T15:37:27.999Z,75.80
2019-05-23T15:39:59.870Z,76.20
2019-05-23T15:42:31.619Z,75.80
2019-05-23T15:45:03.789Z,75.60
2019-05-23T15:47:36.717Z,76.00
2019-05-23T15:50:11.849Z,77.70
2019-05-23T15:52:44.943Z,77.60
2019-05-23T15:55:18.406Z,81.10
2019-05-23T15:57:54.050Z,79.60
2019-05-23T16:00:42.315Z,78.90
2019-05-23T16:03:31.786Z,79.90
2019-05-23T16:06:05.436Z,80.20
2019-05-23T16:08:36.997Z,79.50
2019-05-23T16:11:08.690Z,82.70
2019-05-23T16:13:40.539Z,82.30
2019-05-23T16:16:12.428Z,80.10
2019-05-23T16:18:43.916Z,81.50
2019-05-23T16:21:16.273Z,82.30
2019-05-23T16:23:47.956Z,80.50
2019-05-23T16:26:22.191Z,81.60
2019-05-23T16:28:53.645Z,80.10
2019-05-23T16:31:25.460Z,79.90
2019-05-23T16:33:57.092Z,79.40
2019-05-23T16:36:29.123Z,79.20
2019-05-23T16:39:00.714Z,79.80
2019-05-23T16:41:32.555Z,80.00
2019-05-23T16:44:04.284Z,79.60
2019-05-23T16:46:36.037Z,79.50
2019-05-23T16:49:07.667Z,79.20
2019-05-23T16:51:39.474Z,79.40
2019-05-23T16:54:11.503Z,79.00
2019-05-23T16:56:44.664Z,79.10
2019-05-23T16:59:23.715Z,79.40
2019-05-23T17:02:08.872Z,79.10
2019-05-23T17:04:47.607Z,80.50
2019-05-23T17:07:36.342Z,82.40
2019-05-23T17:10:16.282Z,81.60
2019-05-23T17:12:52.302Z,80.20
2019-05-23T17:15:37.400Z,80.40
2019-05-23T17:18:26.110Z,81.00
2019-05-23T17:20:58.963Z,80.40
2019-05-23T17:23:50.460Z,80.20
2019-05-23T17:26:23.422Z,79.90
2019-05-23T17:28:56.949Z,79.70
2019-05-23T17:31:32.599Z,79.50
2019-05-23T17:34:04.729Z,79.30
2019-05-23T17:36:36.436Z,79.20
2019-05-23T17:39:10.323Z,80.10
2019-05-23T17:41:42.749Z,80.00
2019-05-23T17:44:14.591Z,79.70
2019-05-23T17:46:46.166Z,80.90
2019-05-23T17:49:18.038Z,82.30
2019-05-23T17:51:49.749Z,82.00
2019-05-23T17:54:21.659Z,81.20
2019-05-23T17:56:53.340Z,82.50
2019-05-23T17:59:25.357Z,83.30
2019-05-23T18:01:57.215Z,83.00
2019-05-23T18:04:29.726Z,85.30
2019-05-23T18:07:01.479Z,85.00
2019-05-23T18:09:34.086Z,83.70
2019-05-23T18:12:05.847Z,82.80
2019-05-23T18:14:38.380Z,82.70
2019-05-23T18:17:10.707Z,83.20
2019-05-23T18:19:42.739Z,82.40
2019-05-23T18:22:15.465Z,82.30
2019-05-23T18:24:47.588Z,81.90
2019-05-23T18:27:19.322Z,81.80
2019-05-23T18:29:53.437Z,81.50
2019-05-23T18:32:26.308Z,81.30
2019-05-23T18:34:58.240Z,81.10
2019-05-23T18:37:29.679Z,81.00
2019-05-23T18:40:01.378Z,80.80
2019-05-23T18:42:33.193Z,80.60
2019-05-23T18:45:06.575Z,80.50
2019-05-23T18:47:42.072Z,80.60
2019-05-23T18:50:14.711Z,79.90
2019-05-23T18:52:46.568Z,80.50
2019-05-23T18:55:18.654Z,80.20
2019-05-23T18:57:50.434Z,80.40
2019-05-23T19:00:24.470Z,80.50
2019-05-23T19:02:56.471Z,80.60
2019-05-23T19:05:28.952Z,80.30
2019-05-23T19:08:00.528Z,80.10
2019-05-23T19:10:32.372Z,80.10
2019-05-23T19:13:03.881Z,80.20
2019-05-23T19:15:35.838Z,80.10
2019-05-23T19:18:08.059Z,80.20
2019-05-23T19:20:40.635Z,80.10
2019-05-23T19:23:12.596Z,80.10
2019-05-23T19:25:44.941Z,80.20
2019-05-23T19:28:16.651Z,80.20
2019-05-23T19:30:49.152Z,80.60
2019-05-23T19:33:20.993Z,80.30
2019-05-23T19:35:53.044Z,80.60
2019-05-23T19:38:24.827Z,80.30
2019-05-23T19:40:57.084Z,79.80
2019-05-23T19:43:28.864Z,80.30
2019-05-23T19:46:00.783Z,80.30
2019-05-23T19:48:32.522Z,80.40
2019-05-23T19:51:05.302Z,80.30
2019-05-23T19:53:37.640Z,80.60
2019-05-23T19:56:10.135Z,80.20
2019-05-23T19:58:41.791Z,80.10
2019-05-23T20:01:13.670Z,80.00
2019-05-23T20:03:45.417Z,80.00
2019-05-23T20:06:17.953Z,80.10
2019-05-23T20:08:50.760Z,80.10
2019-05-23T20:11:22.698Z,80.00
2019-05-23T20:13:54.201Z,80.90
2019-05-23T20:16:25.770Z,79.90
2019-05-23T20:18:57.638Z,79.90
2019-05-23T20:21:29.551Z,80.50
2019-05-23T20:24:01.303Z,80.10
2019-05-23T20:26:32.952Z,80.10
2019-05-23T20:29:04.885Z,80.20
2019-05-23T20:31:36.936Z,80.20
2019-05-23T20:34:08.374Z,80.30
2019-05-23T20:36:40.141Z,80.20
2019-05-23T20:39:12.016Z,80.10
2019-05-23T20:41:43.806Z,80.00
2019-05-23T20:44:15.462Z,80.10
2019-05-23T20:46:47.437Z,80.10
2019-05-23T20:49:19.185Z,80.10
2019-05-23T20:51:51.368Z,80.00
2019-05-23T20:54:22.902Z,80.10
2019-05-23T20:56:54.609Z,80.80
2019-05-23T20:59:26.407Z,80.00
2019-05-23T21:01:58.263Z,79.80
2019-05-23T21:04:30.261Z,80.50
2019-05-23T21:07:01.802Z,82.60
2019-05-23T21:09:34.042Z,82.90
2019-05-23T21:12:05.728Z,83.20
2019-05-23T21:14:37.541Z,85.00
2019-05-23T21:17:09.495Z,82.90
2019-05-23T21:19:41.126Z,83.00
2019-05-23T21:22:12.742Z,82.10
2019-05-23T21:24:44.532Z,82.50
2019-05-23T21:27:16.176Z,82.70
2019-05-23T21:29:47.751Z,82.40
2019-05-23T21:32:19.572Z,82.40
2019-05-23T21:34:53.319Z,82.80
2019-05-23T21:37:25.098Z,84.50
2019-05-23T21:39:56.553Z,83.00
2019-05-23T21:42:28.375Z,83.50
2019-05-23T21:44:59.962Z,82.70
2019-05-23T21:47:31.777Z,82.60
2019-05-23T21:50:03.575Z,82.80
2019-05-23T21:52:35.424Z,83.30
2019-05-23T21:55:07.336Z,82.60
2019-05-23T21:57:38.777Z,82.10
2019-05-23T22:00:11.849Z,82.60
2019-05-23T22:02:43.431Z,82.60
2019-05-23T22:05:16.560Z,82.50
2019-05-23T22:07:48.685Z,82.80
2019-05-23T22:10:20.455Z,82.30
2019-05-23T22:13:04.033Z,83.50
2019-05-23T22:15:38.426Z,82.60
2019-05-23T22:18:10.064Z,83.00
2019-05-23T22:20:41.538Z,83.30
2019-05-23T22:23:13.336Z,85.40
2019-05-23T22:25:45.119Z,86.70
2019-05-23T22:28:17.172Z,88.50
2019-05-23T22:30:48.947Z,90.00
2019-05-23T22:33:22.140Z,87.80
2019-05-23T22:35:54.369Z,86.80
2019-05-23T22:38:26.147Z,87.10
2019-05-23T22:40:57.948Z,88.50
2019-05-23T22:43:29.658Z,88.20
2019-05-23T22:46:01.262Z,86.40
2019-05-23T22:48:32.834Z,89.30
2019-05-23T22:51:04.493Z,88.70
2019-05-23T22:53:36.115Z,87.90
2019-05-23T22:56:07.823Z,87.40
2019-05-23T22:58:39.608Z,89.00
2019-05-23T23:01:11.421Z,90.20
2019-05-23T23:03:43.435Z,89.80
2019-05-23T23:06:15.695Z,88.50
2019-05-23T23:08:47.822Z,88.50
2019-05-23T23:11:19.810Z,87.30
2019-05-23T23:13:51.803Z,87.00
2019-05-23T23:16:23.622Z,86.70
2019-05-23T23:18:55.422Z,90.50
2019-05-23T23:21:27.250Z,90.50
2019-05-23T23:23:59.126Z,90.80
2019-05-23T23:26:30.659Z,91.20
2019-05-23T23:29:02.234Z,90.80
2019-05-23T23:31:34.107Z,90.20
2019-05-23T23:34:05.764Z,89.60
2019-05-23T23:36:37.731Z,89.80
2019-05-23T23:39:09.370Z,89.30
2019-05-23T23:41:40.861Z,90.00
2019-05-23T23:44:13.041Z,90.20
2019-05-23T23:47:01.988Z,89.40
2019-05-23T23:49:51.522Z,89.10
2019-05-23T23:52:40.681Z,88.80
2019-05-23T23:55:31.065Z,88.10
2019-05-23T23:58:01.567Z,88.60
